Time;durP1;ratioP1;P1;durP2;ratioP2;P2;SDS_P1;SDS_P2;PMS_P1;PMS_P2;Temp;Humidity;BMP_temperature;BMP_pressure;BME280_temperature;BME280_humidity;BME280_pressure;Samples;Min_cycle;Max_cycle;Signal;HPM_P1;HPM_P2
2022/05/30 00:01:25;;;;;;;0.50;0.50;;;9.70;70.50;;;9.59;55.28;94337.31;5052548;28;20195;-79
2022/05/30 00:03:54;;;;;;;0.60;0.60;;;9.70;70.90;;;9.54;55.25;94340.53;5035359;28;20203;-79
2022/05/30 00:06:22;;;;;;;0.80;0.80;;;9.70;70.60;;;9.52;55.16;94342.56;5054898;28;20285;-79
2022/05/30 00:08:50;;;;;;;0.65;0.65;;;9.60;70.70;;;9.51;55.61;94334.88;5034371;28;20573;-80
2022/05/30 00:11:18;;;;;;;0.65;0.65;;;9.60;71.00;;;9.49;55.75;94339.53;5037931;28;20222;-80
2022/05/30 00:13:45;;;;;;;0.60;0.60;;;9.60;71.10;;;9.49;55.80;94336.91;5038555;28;20223;-79
2022/05/30 00:16:17;;;;;;;0.70;0.70;;;9.50;71.10;;;9.51;56.05;94337.50;5034204;28;20265;-79
2022/05/30 00:18:46;;;;;;;0.70;0.70;;;9.60;71.40;;;9.53;55.90;94335.50;5025111;28;20295;-79
2022/05/30 00:21:21;;;;;;;0.70;0.70;;;9.60;71.40;;;9.55;55.88;94325.66;5018304;28;20192;-78
2022/05/30 00:23:49;;;;;;;0.70;0.70;;;9.60;72.00;;;9.58;56.19;94333.09;5031960;28;20295;-79
2022/05/30 00:26:16;;;;;;;0.68;0.68;;;9.60;71.50;;;9.60;56.14;94325.84;5050601;28;20219;-79
2022/05/30 00:28:44;;;;;;;0.60;0.60;;;9.60;71.60;;;9.63;56.15;94332.50;5046758;28;20231;-79
2022/05/30 00:31:15;;;;;;;0.60;0.60;;;9.70;71.70;;;9.66;56.17;94326.88;5033016;28;20191;-79
2022/05/30 00:33:44;;;;;;;0.60;0.60;;;9.70;71.90;;;9.68;56.21;94323.03;5037149;28;20274;-79
2022/05/30 00:36:12;;;;;;;0.60;0.60;;;9.70;71.70;;;9.71;56.38;94330.47;5017884;28;20203;-79
2022/05/30 00:38:41;;;;;;;0.85;0.85;;;9.70;71.80;;;9.76;56.18;94324.66;5033231;28;20211;-78
2022/05/30 00:41:09;;;;;;;0.80;0.80;;;9.80;71.90;;;9.78;56.50;94333.13;5025587;28;20676;-79
2022/05/30 00:43:40;;;;;;;0.60;0.60;;;9.80;71.90;;;9.79;56.29;94324.25;5052164;28;20192;-79
2022/05/30 00:46:18;;;;;;;0.70;0.70;;;9.90;72.40;;;9.82;56.52;94323.84;5027978;28;20611;-78
2022/05/30 00:49:00;;;;;;;0.60;0.60;;;9.90;72.40;;;9.84;56.35;94326.25;5033818;28;20729;-78
2022/05/30 00:51:34;;;;;;;0.68;0.68;;;9.90;73.60;;;9.89;56.59;94329.88;5017881;28;20219;-79
2022/05/30 00:54:04;;;;;;;0.60;0.60;;;9.90;72.70;;;9.91;56.68;94330.50;5016090;28;20196;-79
2022/05/30 00:56:36;;;;;;;0.60;0.60;;;10.00;71.10;;;9.88;56.61;94325.66;5049275;28;20599;-78
2022/05/30 00:59:05;;;;;;;0.60;0.60;;;10.00;71.20;;;9.94;56.48;94331.91;5031660;28;20210;-78
2022/05/30 01:01:34;;;;;;;0.70;0.70;;;10.00;71.10;;;9.93;56.47;94330.28;5053795;28;20640;-79
2022/05/30 01:07:08;;;;;;;0.60;0.60;;;10.00;71.30;;;9.90;56.70;94315.78;5054844;28;20223;-79
2022/05/30 01:09:44;;;;;;;0.70;0.70;;;10.00;70.90;;;9.90;56.96;94321.03;5017822;28;20222;-80
2022/05/30 01:12:13;;;;;;;0.70;0.70;;;10.00;71.10;;;9.90;56.95;94323.66;5052937;28;20234;-79
2022/05/30 01:14:44;;;;;;;0.70;0.70;;;10.00;71.10;;;9.92;57.08;94315.56;5053347;28;20199;-79
2022/05/30 01:17:16;;;;;;;0.60;0.60;;;10.00;71.00;;;9.92;56.81;94318.19;5051250;28;20215;-78
2022/05/30 01:20:05;;;;;;;0.60;0.60;;;10.00;71.50;;;9.89;57.02;94316.78;5055313;28;20196;-79
2022/05/30 01:23:27;;;;;;;0.60;0.60;;;10.00;71.30;;;9.85;56.86;94317.38;5033850;28;20240;-79
2022/05/30 01:26:09;;;;;;;0.60;0.60;;;10.10;72.80;;;9.85;56.75;94320.81;5040558;28;20241;-79
2022/05/30 01:29:15;;;;;;;0.60;0.60;;;10.00;71.10;;;9.82;56.88;94318.59;5057426;28;20203;-79
2022/05/30 01:31:43;;;;;;;0.60;0.60;;;10.00;71.30;;;9.82;56.87;94320.44;5020621;28;20734;-79
2022/05/30 01:34:12;;;;;;;0.70;0.70;;;10.00;70.60;;;9.83;56.66;94327.28;5037513;28;20207;-79
2022/05/30 01:36:39;;;;;;;0.80;0.80;;;10.00;70.70;;;9.79;56.69;94324.25;5054123;28;20223;-80
2022/05/30 01:39:06;;;;;;;0.70;0.70;;;10.00;70.80;;;9.78;56.88;94318.19;5037502;28;20282;-79
2022/05/30 01:41:54;;;;;;;0.60;0.60;;;9.90;72.20;;;9.81;56.83;94318.81;5052931;28;20231;-78
2022/05/30 01:44:22;;;;;;;0.70;0.70;;;9.90;72.30;;;9.80;57.15;94312.75;5047108;28;20204;-79
2022/05/30 01:46:50;;;;;;;0.70;0.70;;;9.90;72.30;;;9.80;56.93;94311.94;5027253;28;20262;-78
2022/05/30 01:49:18;;;;;;;0.60;0.60;;;10.00;70.90;;;9.77;56.79;94316.56;5050968;28;20227;-79
2022/05/30 01:51:46;;;;;;;0.65;0.65;;;9.90;72.10;;;9.74;56.58;94316.16;5039738;28;20458;-80
2022/05/30 01:54:14;;;;;;;0.50;0.50;;;9.90;72.10;;;9.69;56.78;94319.41;5056013;28;20663;-79
2022/05/30 01:57:07;;;;;;;0.77;0.77;;;9.90;71.90;;;9.61;56.30;94309.13;5022680;28;20292;-79
2022/05/30 01:59:46;;;;;;;0.63;0.63;;;9.80;71.80;;;9.54;56.49;94308.31;5042375;28;20199;-80
2022/05/30 02:02:42;;;;;;;0.60;0.60;;;9.80;71.70;;;9.43;56.64;94301.84;5028908;28;20354;-79
2022/05/30 02:05:11;;;;;;;0.60;0.60;;;9.70;71.50;;;9.36;56.92;94303.66;5020695;28;20202;-79
2022/05/30 02:07:38;;;;;;;0.70;0.70;;;9.60;71.50;;;9.26;56.65;94304.88;5016463;28;20232;-79
2022/05/30 02:10:08;;;;;;;0.80;0.80;;;9.50;71.50;;;9.23;56.45;94310.50;5026694;28;20296;-79
2022/05/30 02:12:37;;;;;;;0.50;0.50;;;9.50;71.50;;;9.15;56.49;94317.72;5000868;28;20233;-78
2022/05/30 02:15:16;;;;;;;0.80;0.80;;;9.40;71.50;;;9.07;56.34;94322.13;5054968;28;20313;-79
2022/05/30 02:17:43;;;;;;;0.80;0.80;;;9.30;71.30;;;8.99;56.35;94322.28;5056977;28;20220;-79
2022/05/30 02:20:11;;;;;;;0.60;0.60;;;9.20;71.30;;;8.92;56.52;94311.00;5048269;28;20726;-80
2022/05/30 02:22:39;;;;;;;0.63;0.63;;;9.20;71.40;;;8.83;56.84;94315.59;5015843;28;20633;-79
2022/05/30 02:25:07;;;;;;;0.50;0.50;;;9.10;71.40;;;8.69;56.62;94304.28;5031208;28;20282;-80
2022/05/30 02:27:35;;;;;;;0.52;0.52;;;9.00;71.40;;;8.68;56.80;94317.53;5054534;28;20219;-78
2022/05/30 02:30:02;;;;;;;0.80;0.80;;;8.90;71.30;;;8.59;57.05;94307.28;5054389;28;20196;-79
2022/05/30 02:32:29;;;;;;;0.60;0.60;;;8.80;71.50;;;8.54;57.50;94309.63;5026771;28;20676;-80
2022/05/30 02:37:43;;;;;;;0.70;0.70;;;8.70;71.80;;;8.45;57.01;94310.78;5067415;28;20211;-78
2022/05/30 02:40:30;;;;;;;0.60;0.60;;;8.70;71.70;;;8.41;57.03;94312.16;5052735;28;20253;-79
2022/05/30 02:43:16;;;;;;;0.60;0.60;;;8.70;71.80;;;8.36;57.33;94317.97;5064279;28;20223;-79
2022/05/30 02:45:44;;;;;;;0.60;0.60;;;8.60;71.80;;;8.31;57.03;94310.72;5036100;28;20298;-79
2022/05/30 02:48:13;;;;;;;0.60;0.60;;;8.60;71.80;;;8.28;57.12;94308.47;5051728;28;20238;-79
2022/05/30 02:50:41;;;;;;;0.73;0.73;;;8.50;71.80;;;8.27;56.69;94312.06;5047877;28;20204;-80
2022/05/30 02:53:08;;;;;;;0.50;0.50;;;8.50;71.80;;;8.25;56.69;94314.09;5015463;28;20224;-79
2022/05/30 02:56:08;;;;;;;0.60;0.60;;;8.40;71.80;;;8.18;56.31;94314.03;5045883;28;20284;-79
2022/05/30 02:58:36;;;;;;;0.60;0.60;;;8.40;71.80;;;8.16;56.78;94325.69;5053359;28;20281;-79
2022/05/30 03:01:03;;;;;;;0.70;0.70;;;8.30;71.80;;;8.13;56.96;94326.88;5034804;28;20227;-78
2022/05/30 03:03:31;;;;;;;0.60;0.60;;;8.30;71.80;;;8.08;56.87;94324.03;5020337;28;20199;-78
2022/05/30 03:05:59;;;;;;;0.60;0.60;;;8.20;71.90;;;8.05;57.08;94329.63;5055690;28;20222;-79
2022/05/30 03:08:26;;;;;;;0.70;0.70;;;8.20;72.00;;;8.04;57.11;94328.00;5038094;28;20209;-79
2022/05/30 03:11:14;;;;;;;0.60;0.60;;;8.20;72.10;;;8.00;56.85;94322.34;5025164;28;20199;-79
2022/05/30 03:13:41;;;;;;;0.55;0.55;;;8.20;72.20;;;8.02;57.09;94324.81;5037147;28;20230;-79
2022/05/30 03:16:09;;;;;;;0.60;0.60;;;8.20;72.30;;;8.01;57.15;94323.97;5026958;28;20192;-78
2022/05/30 03:18:40;;;;;;;0.60;0.60;;;8.20;72.30;;;8.01;57.66;94331.00;5044010;28;20724;-79
2022/05/30 03:21:10;;;;;;;0.70;0.70;;;8.10;72.20;;;8.00;57.21;94335.41;5049798;28;20220;-79
2022/05/30 03:23:37;;;;;;;0.70;0.70;;;8.10;72.20;;;7.97;57.46;94332.38;5018819;28;20195;-79
2022/05/30 03:26:10;;;;;;;0.60;0.60;;;8.10;72.20;;;7.95;57.46;94337.78;5020269;28;20298;-78
2022/05/30 03:28:38;;;;;;;0.70;0.70;;;8.10;72.30;;;7.93;57.19;94337.16;5036057;28;20207;-79
2022/05/30 03:31:08;;;;;;;0.60;0.60;;;8.10;72.20;;;7.91;56.92;94340.97;5063586;28;20228;-79
2022/05/30 03:33:39;;;;;;;0.60;0.60;;;8.10;72.30;;;7.89;57.41;94337.75;5017221;28;20228;-79
2022/05/30 03:36:26;;;;;;;0.60;0.60;;;8.10;72.30;;;7.86;57.10;94331.13;5003376;28;20627;-79
2022/05/30 03:39:00;;;;;;;0.60;0.60;;;8.00;72.80;;;7.81;57.38;94330.84;5063864;28;20731;-79
2022/05/30 03:41:46;;;;;;;0.60;0.60;;;8.00;72.20;;;7.82;57.99;94333.28;5036024;28;20227;-79
2022/05/30 03:44:43;;;;;;;0.60;0.60;;;8.00;72.50;;;7.83;58.42;94336.69;5027343;28;20223;-79
2022/05/30 03:47:11;;;;;;;0.60;0.60;;;8.00;72.70;;;7.87;58.20;94331.91;5042305;28;20227;-79
2022/05/30 03:49:39;;;;;;;0.60;0.60;;;8.10;73.10;;;7.92;58.00;94335.56;5031748;28;20224;-79
2022/05/30 03:52:07;;;;;;;0.80;0.80;;;8.10;73.20;;;7.97;58.11;94332.38;5015814;28;20240;-79
2022/05/30 03:54:34;;;;;;;0.73;0.73;;;8.10;73.30;;;8.00;58.11;94330.19;5024689;28;20196;-79
2022/05/30 03:57:01;;;;;;;0.70;0.70;;;8.10;73.40;;;8.10;58.14;94332.47;5022308;28;20228;-79
2022/05/30 03:59:29;;;;;;;0.60;0.60;;;8.20;73.50;;;8.15;58.36;94332.72;5046124;28;20203;-80
2022/05/30 04:02:00;;;;;;;0.70;0.70;;;8.30;73.60;;;8.24;58.12;94329.94;5012806;28;20218;-80
2022/05/30 04:04:28;;;;;;;0.70;0.70;;;8.30;73.60;;;8.25;58.14;94332.38;5017340;28;20204;-80
2022/05/30 04:06:55;;;;;;;0.50;0.50;;;8.40;73.60;;;8.33;58.22;94328.81;5032569;28;20651;-80
2022/05/30 04:09:23;;;;;;;0.75;0.75;;;8.40;73.60;;;8.37;58.37;94324.78;5017636;28;20211;-79
2022/05/30 04:12:10;;;;;;;0.60;0.60;;;8.50;73.60;;;8.41;58.45;94330.44;5044542;28;20221;-79
2022/05/30 04:14:43;;;;;;;0.60;0.60;;;8.60;73.70;;;8.46;58.51;94328.91;5028631;28;20201;-80
2022/05/30 04:17:13;;;;;;;0.80;0.80;;;8.60;73.60;;;8.51;58.15;94328.34;5045946;28;20224;-79
2022/05/30 04:19:41;;;;;;;0.60;0.60;;;8.70;73.70;;;8.51;58.23;94320.50;5047159;28;20214;-78
2022/05/30 04:22:11;;;;;;;0.60;0.60;;;8.70;73.70;;;8.57;58.43;94313.66;5030856;28;20310;-79
2022/05/30 04:25:01;;;;;;;0.60;0.60;;;8.70;73.70;;;8.59;58.18;94322.94;5054168;28;20744;-79
2022/05/30 04:27:29;;;;;;;0.85;0.85;;;8.80;73.70;;;8.61;58.48;94320.13;5037236;28;20243;-79
2022/05/30 04:29:56;;;;;;;0.65;0.65;;;8.80;73.70;;;8.62;58.52;94322.56;5038640;28;20538;-79
2022/05/30 04:32:31;;;;;;;0.63;0.63;;;8.90;74.80;;;8.69;58.62;94330.44;5024002;28;20233;-78
2022/05/30 04:34:58;;;;;;;0.60;0.60;;;8.90;73.90;;;8.73;58.56;94331.66;5021256;28;20204;-79
2022/05/30 04:37:28;;;;;;;0.60;0.60;;;8.90;73.90;;;8.78;58.71;94337.09;5010581;28;20605;-79
2022/05/30 04:40:17;;;;;;;0.73;0.73;;;9.00;74.20;;;8.83;58.87;94344.38;5009535;28;20216;-79
2022/05/30 04:43:04;;;;;;;0.90;0.90;;;9.00;74.00;;;8.88;58.99;94341.97;5001962;28;20222;-78
2022/05/30 04:46:15;;;;;;;0.60;0.60;;;9.10;74.00;;;8.91;59.11;94343.38;5026485;28;20299;-78
2022/05/30 04:48:47;;;;;;;0.60;0.60;;;9.20;75.00;;;8.98;59.65;94346.81;5004771;28;20211;-79
2022/05/30 04:51:14;;;;;;;0.60;0.60;;;9.20;74.20;;;9.03;59.40;94347.03;4999751;28;20235;-78
2022/05/30 04:53:42;;;;;;;0.80;0.80;;;9.30;74.40;;;9.13;59.67;94355.34;4996966;28;20315;-78
2022/05/30 04:56:10;;;;;;;0.70;0.70;;;9.40;74.60;;;9.20;59.52;94357.16;5000468;28;20657;-78
2022/05/30 04:58:49;;;;;;;0.60;0.60;;;9.40;74.60;;;9.32;59.45;94357.41;5014969;28;20759;-78
2022/05/30 05:01:20;;;;;;;0.80;0.80;;;9.50;74.70;;;9.39;59.48;94353.81;5041946;28;20228;-79
2022/05/30 05:03:48;;;;;;;0.60;0.60;;;9.60;74.80;;;9.48;59.38;94359.66;5002420;28;20204;-77
2022/05/30 05:06:19;;;;;;;0.60;0.60;;;9.60;74.70;;;9.52;59.46;94357.44;5025118;28;20211;-79
2022/05/30 05:09:06;;;;;;;0.70;0.70;;;9.70;75.00;;;9.58;59.98;94367.94;5030149;28;20208;-79
2022/05/30 05:11:37;;;;;;;0.60;0.60;;;9.80;75.30;;;9.64;59.85;94368.16;5032222;28;20216;-78
2022/05/30 05:14:22;;;;;;;0.60;0.60;;;9.80;75.30;;;9.62;61.25;94368.34;5040226;28;20278;-80
2022/05/30 05:17:21;;;;;;;0.60;0.60;;;9.90;75.00;;;9.69;60.84;94369.16;5011960;28;20239;-79
2022/05/30 05:19:48;;;;;;;0.70;0.70;;;10.00;73.50;;;9.73;60.63;94377.44;5020107;28;21182;-79
2022/05/30 05:22:15;;;;;;;0.60;0.60;;;10.00;73.50;;;9.80;60.70;94378.22;5028794;28;20231;-79
2022/05/30 05:24:43;;;;;;;0.60;0.60;;;10.10;73.90;;;9.86;60.71;94377.44;5001226;28;20947;-78
2022/05/30 05:27:29;;;;;;;0.70;0.70;;;10.10;73.80;;;9.91;60.82;94377.66;5024983;28;20243;-79
2022/05/30 05:29:56;;;;;;;0.60;0.60;;;10.20;73.90;;;9.98;61.07;94385.50;5015995;28;20211;-80
2022/05/30 05:32:23;;;;;;;0.70;0.70;;;10.30;73.90;;;10.07;61.14;94386.09;4999663;28;20247;-79
2022/05/30 05:34:51;;;;;;;0.60;0.60;;;10.40;74.20;;;10.13;62.10;94387.13;5032494;28;21413;-78
2022/05/30 05:37:19;;;;;;;0.60;0.60;;;10.40;74.30;;;10.19;60.99;94386.31;5023421;28;20311;-79
2022/05/30 05:39:54;;;;;;;0.80;0.80;;;10.50;74.20;;;10.19;62.01;94387.13;4997210;28;20657;-80
2022/05/30 05:42:21;;;;;;;0.70;0.70;;;10.60;74.30;;;10.25;62.20;94388.94;5015283;28;20290;-81
2022/05/30 05:44:51;;;;;;;0.80;0.80;;;10.60;74.30;;;10.36;61.49;94386.69;5024532;28;20286;-79
2022/05/30 05:47:18;;;;;;;0.50;0.50;;;10.70;74.70;;;10.45;62.03;94390.75;5020948;28;20592;-80
2022/05/30 05:49:45;;;;;;;0.60;0.60;;;10.80;74.70;;;10.54;61.82;94386.91;5019293;28;20204;-80
2022/05/30 05:52:15;;;;;;;0.70;0.70;;;10.80;74.60;;;10.57;62.13;94380.47;5021750;28;20234;-80
2022/05/30 05:54:44;;;;;;;0.60;0.60;;;10.90;75.00;;;10.69;62.21;94388.50;5022345;28;20704;-80
2022/05/30 05:57:12;;;;;;;0.52;0.52;;;11.00;75.10;;;10.79;62.27;94390.69;5035662;28;20220;-80
2022/05/30 05:59:43;;;;;;;0.65;0.65;;;11.10;74.90;;;10.87;62.67;94390.47;5035169;28;20214;-79
2022/05/30 06:02:10;;;;;;;0.50;0.50;;;11.30;74.80;;;10.98;62.25;94389.81;5016573;28;20223;-80
2022/05/30 06:04:39;;;;;;;0.80;0.80;;;11.40;74.80;;;11.05;62.25;94380.13;5032364;28;20663;-80
2022/05/30 06:07:09;;;;;;;0.60;0.60;;;11.50;74.80;;;11.21;62.15;94389.34;5048162;28;20246;-79
2022/05/30 06:09:57;;;;;;;0.50;0.50;;;11.60;74.80;;;11.33;61.80;94379.00;5029321;28;20238;-81
2022/05/30 06:12:42;;;;;;;0.60;0.60;;;11.80;74.70;;;11.52;61.93;94393.03;5011112;28;20226;-80
2022/05/30 06:15:14;;;;;;;0.50;0.50;;;11.90;74.60;;;11.64;61.49;94387.13;5034557;28;20199;-80
2022/05/30 06:18:03;;;;;;;0.70;0.70;;;12.00;74.60;;;11.87;61.48;94398.91;5050857;28;20675;-79
2022/05/30 06:20:30;;;;;;;0.60;0.60;;;12.20;74.50;;;12.01;60.88;94392.56;5066232;28;20286;-80
2022/05/30 06:22:57;;;;;;;0.70;0.70;;;12.30;74.40;;;12.10;60.75;94391.28;5036080;28;20243;-80
2022/05/30 06:25:42;;;;;;;0.60;0.60;;;12.40;74.10;;;12.25;60.66;94400.69;5024984;28;20214;-80
2022/05/30 06:28:29;;;;;;;0.50;0.50;;;12.60;74.80;;;12.32;60.39;94398.81;5015601;28;20220;-79
2022/05/30 06:31:19;;;;;;;0.60;0.60;;;12.70;73.60;;;12.40;60.24;94395.91;5028300;28;20207;-79
2022/05/30 06:33:51;;;;;;;0.55;0.55;;;12.70;73.30;;;12.51;60.32;94397.00;5018279;28;20286;-80
2022/05/30 06:36:47;;;;;;;0.68;0.68;;;12.80;73.50;;;12.65;60.18;94397.69;5032980;28;20243;-81
2022/05/30 06:39:17;;;;;;;0.50;0.50;;;12.90;73.60;;;12.81;60.10;94397.13;5018699;28;20195;-81
2022/05/30 06:41:55;;;;;;;0.70;0.70;;;13.10;73.70;;;12.94;59.79;94396.19;5045375;28;20231;-81
2022/05/30 06:44:24;;;;;;;0.60;0.60;;;13.20;73.50;;;13.02;59.64;94389.03;5052613;28;20202;-79
2022/05/30 06:47:17;;;;;;;0.60;0.60;;;13.30;73.20;;;13.15;59.35;94391.50;5055126;28;20243;-81
2022/05/30 06:50:04;;;;;;;0.60;0.60;;;13.40;72.90;;;13.17;59.34;94381.56;5049443;28;20790;-80
2022/05/30 06:52:31;;;;;;;0.60;0.60;;;13.60;74.10;;;13.32;59.04;94398.78;5051544;28;20227;-80
2022/05/30 06:54:59;;;;;;;0.60;0.60;;;13.70;73.20;;;13.37;59.29;94396.31;5015653;28;20310;-80
2022/05/30 07:00:13;;;;;;;0.80;0.80;;;13.80;72.80;;;13.56;58.91;94402.38;5049848;28;20187;-79
2022/05/30 07:03:01;;;;;;;0.70;0.70;;;13.90;72.70;;;13.71;59.22;94402.78;5045958;28;20234;-80
2022/05/30 07:05:46;;;;;;;0.60;0.60;;;14.00;72.80;;;13.85;58.79;94399.97;5031989;28;20206;-79
2022/05/30 07:08:31;;;;;;;0.70;0.70;;;14.10;72.50;;;13.89;58.18;94401.94;5049510;28;20572;-79
2022/05/30 07:11:19;;;;;;;0.50;0.50;;;14.30;72.20;;;13.97;58.03;94408.72;5055763;28;20195;-80
2022/05/30 07:13:48;;;;;;;0.70;0.70;;;14.30;71.80;;;13.95;57.86;94397.56;5039097;28;20687;-79
2022/05/30 07:16:16;;;;;;;0.50;0.50;;;14.40;71.50;;;14.08;57.81;94407.13;5039520;28;20301;-77
2022/05/30 07:18:44;;;;;;;0.60;0.60;;;14.40;71.40;;;14.20;58.02;94410.59;5004827;28;20226;-78
2022/05/30 07:21:14;;;;;;;0.50;0.50;;;14.60;71.80;;;14.36;58.14;94405.69;5031517;28;20199;-79
2022/05/30 07:24:00;;;;;;;0.60;0.60;;;14.60;71.80;;;14.58;58.29;94398.03;5023342;28;20779;-78
2022/05/30 07:27:03;;;;;;;0.50;0.50;;;14.80;72.20;;;14.86;58.43;94401.84;4991502;28;20223;-79
2022/05/30 07:29:50;;;;;;;0.50;0.50;;;15.00;72.60;;;15.10;58.11;94401.78;5006009;28;20214;-82
2022/05/30 07:32:35;;;;;;;0.50;0.50;;;15.20;72.60;;;15.34;58.21;94402.53;5032268;28;20843;-81
2022/05/30 07:35:22;;;;;;;0.50;0.50;;;15.50;72.00;;;15.48;57.35;94398.59;5020802;28;20272;-80
2022/05/30 07:38:27;;;;;;;0.50;0.50;;;15.80;71.60;;;15.61;56.89;94399.34;5003681;28;20768;-79
2022/05/30 07:41:12;;;;;;;0.70;0.70;;;15.90;71.10;;;15.64;55.72;94393.63;5033884;28;20203;-79
2022/05/30 07:43:50;;;;;;;0.70;0.70;;;16.10;71.30;;;15.64;55.32;94399.69;4995286;28;20212;-79
2022/05/30 07:46:50;;;;;;;0.50;0.50;;;16.10;69.50;;;15.63;55.66;94390.16;5015135;28;20235;-79
2022/05/30 07:49:30;;;;;;;0.50;0.50;;;16.20;69.70;;;15.60;54.32;94395.91;5004995;28;20207;-80
2022/05/30 07:52:17;;;;;;;0.57;0.57;;;16.30;68.90;;;15.56;54.90;94392.13;5014452;28;20230;-79
2022/05/30 07:55:04;;;;;;;0.50;0.50;;;16.20;68.70;;;15.52;53.84;94399.72;5025775;28;20238;-80
2022/05/30 07:57:50;;;;;;;0.60;0.60;;;16.10;68.20;;;15.49;53.85;94400.22;5047823;28;20281;-79
2022/05/30 08:00:24;;;;;;;0.60;0.60;;;16.10;68.10;;;15.45;54.49;94393.81;5013329;28;20199;-79
2022/05/30 08:02:53;;;;;;;0.60;0.60;;;16.10;68.50;;;15.49;54.22;94399.38;5036798;28;20724;-79
2022/05/30 08:05:28;;;;;;;0.50;0.50;;;16.00;68.60;;;15.52;54.87;94409.50;5023625;28;20208;-79
2022/05/30 08:08:15;;;;;;;0.57;0.57;;;16.00;68.90;;;15.51;54.85;94406.06;5036183;28;20724;-79
2022/05/30 08:10:54;;;;;;;0.57;0.57;;;16.10;69.00;;;15.53;54.48;94413.75;5027441;28;20803;-79
2022/05/30 08:13:22;;;;;;;0.50;0.50;;;16.10;68.90;;;15.55;54.45;94416.97;5035884;28;20284;-80
2022/05/30 08:15:55;;;;;;;0.52;0.52;;;16.10;68.60;;;15.58;54.38;94405.91;5017922;28;20281;-79
2022/05/30 08:18:25;;;;;;;0.60;0.60;;;16.00;68.80;;;15.61;54.02;94409.94;5018869;28;21532;-79
2022/05/30 08:20:57;;;;;;;0.50;0.50;;;16.10;68.40;;;15.70;54.28;94413.81;5018134;28;20276;-79
2022/05/30 08:23:25;;;;;;;0.52;0.52;;;16.20;69.00;;;15.81;53.79;94417.47;5000973;28;20206;-81
2022/05/30 08:25:55;;;;;;;0.47;0.47;;;16.10;68.10;;;15.89;53.71;94421.59;5000856;28;20202;-79
2022/05/30 08:28:25;;;;;;;0.50;0.50;;;16.30;68.20;;;15.93;53.00;94418.22;5014541;28;20349;-78
2022/05/30 08:30:55;;;;;;;0.60;0.60;;;16.40;68.00;;;15.97;52.87;94416.72;5027265;28;20641;-78
2022/05/30 08:33:41;;;;;;;0.40;0.40;;;16.30;67.60;;;15.98;52.60;94418.31;5032377;28;20234;-78
2022/05/30 08:36:32;;;;;;;0.50;0.50;;;16.40;66.90;;;16.00;52.73;94416.25;5031921;28;20222;-78
2022/05/30 08:41:48;;;;;;;0.50;0.50;;;16.40;67.30;;;16.11;53.00;94408.47;5005139;28;20226;-79
2022/05/30 08:44:33;;;;;;;0.50;0.50;;;16.50;67.60;;;16.27;53.37;94418.28;5006227;28;20258;-78
2022/05/30 08:47:54;;;;;;;0.50;0.50;;;16.60;68.00;;;16.51;53.39;94417.31;5017855;28;20238;-80
2022/05/30 08:50:53;;;;;;;0.40;0.40;;;16.70;68.10;;;16.77;53.21;94421.16;5032162;28;20246;-79
2022/05/30 08:53:50;;;;;;;0.50;0.50;;;17.00;68.20;;;17.11;52.91;94426.41;5027962;28;20203;-80
2022/05/30 08:56:34;;;;;;;0.45;0.45;;;17.20;68.80;;;17.41;53.50;94419.91;4998027;28;20226;-79
2022/05/30 08:59:55;;;;;;;0.40;0.40;;;17.60;68.50;;;17.76;52.94;94424.84;5022605;28;20230;-80
2022/05/30 09:02:42;;;;;;;0.50;0.50;;;17.90;68.20;;;18.11;52.46;94424.69;5030680;28;20223;-80
2022/05/30 09:05:15;;;;;;;0.45;0.45;;;18.20;67.60;;;18.35;51.46;94417.97;5008385;28;20207;-80
2022/05/30 09:08:09;;;;;;;0.50;0.50;;;18.40;67.40;;;18.66;51.97;94423.56;5027886;28;20237;-79
2022/05/30 09:11:03;;;;;;;0.40;0.40;;;18.80;67.30;;;18.87;51.19;94421.84;5025503;28;20273;-80
2022/05/30 09:13:40;;;;;;;0.40;0.40;;;19.10;66.50;;;19.03;50.55;94421.97;5030506;28;20582;-79
2022/05/30 09:16:38;;;;;;;0.40;0.40;;;19.20;66.00;;;19.07;49.79;94431.00;5018014;28;20726;-80
2022/05/30 09:19:13;;;;;;;0.40;0.40;;;19.40;65.00;;;19.06;49.61;94434.72;4995004;28;20208;-80
2022/05/30 09:21:42;;;;;;;0.60;0.60;;;19.40;64.90;;;19.00;49.50;94431.22;5012649;28;20242;-80
2022/05/30 09:24:12;;;;;;;0.40;0.40;;;19.40;64.60;;;18.96;48.70;94432.03;5028217;28;20207;-79
2022/05/30 09:26:40;;;;;;;0.40;0.40;;;19.40;64.20;;;18.91;49.15;94435.44;5003989;28;20369;-80
2022/05/30 09:29:34;;;;;;;0.45;0.45;;;19.30;63.90;;;18.83;48.97;94423.38;5020092;28;20220;-80
2022/05/30 09:32:52;;;;;;;0.50;0.50;;;19.30;63.80;;;18.80;49.15;94423.91;5042010;28;20239;-80
2022/05/30 09:35:41;;;;;;;0.40;0.40;;;19.30;63.40;;;18.83;49.06;94423.38;5040834;28;20227;-80
2022/05/30 09:38:55;;;;;;;0.40;0.40;;;19.40;64.40;;;18.94;48.51;94418.19;4997541;28;20627;-80
2022/05/30 09:41:38;;;;;;;0.40;0.40;;;19.40;63.10;;;19.10;48.70;94411.88;5028496;28;20718;-80
2022/05/30 09:44:45;;;;;;;0.43;0.43;;;19.50;63.40;;;19.28;48.65;94409.84;5022063;28;20202;-80
2022/05/30 09:47:32;;;;;;;0.40;0.40;;;19.60;63.10;;;19.48;48.13;94414.44;5025870;28;20221;-80
2022/05/30 09:50:21;;;;;;;0.55;0.55;;;19.70;63.80;;;19.68;47.82;94416.41;5025668;28;20218;-80
2022/05/30 09:52:52;;;;;;;0.40;0.40;;;20.00;63.50;;;19.84;47.37;94420.72;5024391;28;20237;-80
2022/05/30 09:55:49;;;;;;;0.40;0.40;;;20.10;63.60;;;19.93;46.75;94407.72;5042902;28;20219;-80
2022/05/30 09:58:44;;;;;;;0.40;0.40;;;20.20;63.00;;;20.00;46.26;94404.78;5035645;28;20219;-79
2022/05/30 10:01:37;;;;;;;0.40;0.40;;;20.40;63.40;;;19.99;46.02;94414.66;5054059;28;20363;-80
2022/05/30 10:04:41;;;;;;;0.40;0.40;;;20.40;62.20;;;19.88;45.92;94413.03;5015767;28;20196;-80
2022/05/30 10:07:20;;;;;;;0.40;0.40;;;20.40;61.90;;;19.78;46.39;94416.41;5036931;28;20223;-79
2022/05/30 10:10:25;;;;;;;0.40;0.40;;;20.30;62.10;;;19.59;46.18;94404.66;5043541;28;20257;-80
2022/05/30 10:13:05;;;;;;;0.60;0.60;;;20.20;62.00;;;19.41;46.50;94411.22;5035910;28;20227;-80
2022/05/30 10:15:58;;;;;;;0.50;0.50;;;20.10;62.30;;;19.22;46.56;94406.38;5019380;28;20220;-80
2022/05/30 10:18:30;;;;;;;0.40;0.40;;;19.90;61.80;;;19.17;46.67;94414.31;4992634;28;20765;-80
2022/05/30 10:21:39;;;;;;;0.40;0.40;;;19.80;62.30;;;19.17;47.08;94415.09;5031161;28;20205;-80
2022/05/30 10:28:51;;;;;;;0.40;0.40;;;19.70;62.50;;;19.36;45.92;94409.38;4975170;28;20683;-81
2022/05/30 10:32:12;;;;;;;0.40;0.40;;;19.80;61.60;;;19.49;45.88;94411.56;5043377;28;20226;-79
2022/05/30 10:35:10;;;;;;;0.40;0.40;;;19.90;62.20;;;19.63;44.99;94403.09;5034409;28;20219;-79
2022/05/30 10:38:21;;;;;;;0.50;0.50;;;20.00;61.00;;;19.79;44.75;94406.59;5044415;28;20241;-80
2022/05/30 10:41:09;;;;;;;0.30;0.30;;;20.10;61.70;;;19.93;44.71;94398.94;5022166;28;20192;-79
2022/05/30 10:43:54;;;;;;;0.30;0.30;;;20.30;61.00;;;20.03;44.80;94400.81;5045236;28;20204;-79
2022/05/30 10:46:40;;;;;;;0.40;0.40;;;20.40;61.00;;;20.10;44.76;94402.16;5031676;28;20234;-79
2022/05/30 10:49:14;;;;;;;0.40;0.40;;;20.40;60.30;;;20.17;44.75;94387.78;5033131;28;20269;-81
2022/05/30 10:52:17;;;;;;;0.50;0.50;;;20.50;60.70;;;20.37;44.26;94398.44;5061676;28;20689;-79
2022/05/30 10:55:05;;;;;;;0.40;0.40;;;20.60;61.00;;;20.55;44.97;94391.00;5052727;28;20216;-80
2022/05/30 10:57:45;;;;;;;0.40;0.40;;;20.70;61.50;;;20.76;45.11;94395.28;5037050;28;20227;-79
2022/05/30 11:00:25;;;;;;;0.43;0.43;;;20.90;61.60;;;20.99;44.54;94398.41;5027186;28;20684;-78
2022/05/30 11:03:11;;;;;;;0.30;0.30;;;21.00;61.40;;;21.19;43.29;94394.91;5017897;28;20278;-78
2022/05/30 11:06:23;;;;;;;0.40;0.40;;;21.20;57.20;;;21.26;41.67;94387.44;5040635;28;20237;-80
2022/05/30 11:09:20;;;;;;;0.40;0.40;;;21.40;59.30;;;21.33;42.94;94387.13;5041558;28;20679;-79
2022/05/30 11:12:15;;;;;;;0.50;0.50;;;21.50;59.40;;;21.43;42.77;94384.44;5048125;28;20697;-79
2022/05/30 11:15:10;;;;;;;0.40;0.40;;;21.60;59.80;;;21.58;42.28;94390.78;5048016;28;20237;-80
2022/05/30 11:19:16;;;;;;;0.38;0.38;;;21.80;59.10;;;21.71;42.38;94378.72;5042595;28;20344;-82
2022/05/30 11:22:46;;;;;;;0.38;0.38;;;21.90;59.50;;;21.83;42.51;94379.19;5020564;28;20755;-80
2022/05/30 11:25:59;;;;;;;0.40;0.40;;;22.10;58.00;;;21.90;42.55;94390.34;5030453;28;20225;-81
2022/05/30 11:28:53;;;;;;;0.40;0.40;;;22.20;59.30;;;21.92;41.33;94387.41;5055729;28;20260;-81
2022/05/30 11:31:45;;;;;;;0.40;0.40;;;22.30;58.10;;;21.84;41.22;94388.78;5067229;28;20222;-80